createdAt,value
2018-11-14T00:08:42.637Z,8.40
2018-11-14T00:19:02.986Z,9.70
2018-11-14T00:29:20.992Z,10.17
2018-11-14T00:39:38.824Z,10.73
2018-11-14T00:49:57.384Z,12.57
2018-11-14T01:00:23.512Z,13.83
2018-11-14T01:10:41.958Z,15.93
2018-11-14T01:21:01.384Z,17.00
2018-11-14T01:31:19.583Z,17.03
2018-11-14T01:41:38.282Z,19.73
2018-11-14T01:51:56.632Z,19.73
2018-11-14T02:02:14.549Z,20.60
2018-11-14T02:12:32.725Z,20.27
2018-11-14T02:22:51.032Z,21.67
2018-11-14T02:33:09.136Z,21.60
2018-11-14T02:43:27.287Z,20.03
2018-11-14T02:53:45.292Z,22.00
2018-11-14T03:04:03.625Z,20.73
2018-11-14T03:14:21.892Z,24.97
2018-11-14T03:24:40.424Z,23.00
2018-11-14T03:34:58.284Z,23.63
2018-11-14T03:45:16.566Z,22.13
2018-11-14T03:55:35.112Z,25.63
2018-11-14T04:05:53.600Z,25.73
2018-11-14T04:16:11.645Z,33.63
2018-11-14T04:26:30.273Z,27.47
2018-11-14T04:36:48.217Z,24.23
2018-11-14T04:47:05.863Z,27.97
2018-11-14T04:57:24.016Z,27.07
2018-11-14T05:07:42.017Z,23.93
2018-11-14T05:18:00.127Z,28.80
2018-11-14T05:28:17.830Z,19.53
2018-11-14T05:38:36.046Z,32.67
2018-11-14T05:48:54.442Z,30.70
2018-11-14T05:59:12.952Z,28.43
2018-11-14T06:09:31.350Z,26.60
2018-11-14T06:19:49.240Z,28.27
2018-11-14T06:29:49.132Z,35.10
2018-11-14T06:39:48.956Z,31.70
2018-11-14T06:49:48.888Z,41.83
2018-11-14T06:59:48.950Z,30.87
2018-11-14T07:09:48.681Z,28.57
2018-11-14T07:19:48.616Z,28.43
2018-11-14T07:29:48.462Z,40.30
2018-11-14T07:39:48.319Z,42.27
2018-11-14T07:50:09.762Z,46.13
2018-11-14T08:00:27.795Z,27.63
2018-11-14T08:10:46.295Z,26.33
2018-11-14T08:21:04.944Z,20.33
2018-11-14T08:31:23.200Z,17.13
2018-11-14T08:41:41.532Z,13.37
2018-11-14T08:52:00.108Z,12.80
2018-11-14T09:02:18.138Z,10.67
2018-11-14T09:12:36.351Z,10.20
2018-11-14T09:22:54.209Z,9.63
2018-11-14T09:33:12.191Z,11.23
2018-11-14T09:43:30.176Z,10.47
2018-11-14T09:53:48.429Z,7.27
2018-11-14T10:04:08.387Z,5.33
2018-11-14T10:14:27.065Z,3.90
2018-11-14T10:24:45.368Z,4.33
2018-11-14T10:35:03.424Z,3.63
2018-11-14T10:45:23.011Z,3.80
2018-11-14T10:55:41.303Z,3.53
2018-11-14T11:06:17.363Z,5.13
2018-11-14T11:16:35.215Z,5.20
2018-11-14T11:26:54.382Z,31.90
2018-11-14T11:37:12.128Z,19.73
2018-11-14T11:47:30.677Z,15.67
2018-11-14T11:57:48.749Z,10.40
2018-11-14T12:08:06.663Z,11.10
2018-11-14T12:18:24.488Z,13.03
2018-11-14T12:28:42.530Z,12.83
2018-11-14T12:39:00.320Z,13.70
2018-11-14T12:49:18.502Z,11.80
2018-11-14T12:59:37.085Z,9.40
2018-11-14T13:09:55.380Z,7.93
2018-11-14T13:20:15.787Z,8.43
2018-11-14T13:30:33.723Z,8.43
2018-11-14T13:40:52.023Z,7.73
2018-11-14T13:51:10.286Z,8.20
2018-11-14T14:01:28.648Z,9.30
2018-11-14T14:11:46.918Z,10.53
2018-11-14T14:22:05.105Z,10.20
2018-11-14T14:32:23.503Z,8.77
2018-11-14T14:42:41.823Z,12.13
2018-11-14T14:53:00.220Z,14.30
2018-11-14T15:03:18.468Z,10.53
2018-11-14T15:13:36.195Z,9.10
2018-11-14T15:23:54.540Z,7.43
2018-11-14T15:34:12.955Z,9.90
2018-11-14T15:44:31.144Z,9.83
2018-11-14T15:54:49.196Z,10.97
2018-11-14T16:05:08.991Z,31.20
2018-11-14T16:15:29.360Z,15.77
2018-11-14T16:25:47.367Z,14.40
2018-11-14T16:36:06.612Z,22.53
2018-11-14T16:46:24.918Z,18.17
2018-11-14T16:56:42.652Z,17.27
2018-11-14T17:07:01.177Z,13.90
2018-11-14T17:17:19.283Z,14.20
2018-11-14T17:27:37.384Z,19.80
2018-11-14T17:37:55.230Z,13.23
2018-11-14T17:48:13.534Z,36.27
2018-11-14T17:58:31.543Z,22.87
2018-11-14T18:08:49.544Z,24.60
2018-11-14T18:19:08.273Z,22.90
2018-11-14T18:29:26.385Z,20.27
2018-11-14T18:39:44.389Z,27.40
2018-11-14T18:50:02.341Z,20.37
2018-11-14T19:00:32.011Z,18.30
2018-11-14T19:10:50.379Z,15.20
2018-11-14T19:21:09.233Z,17.90
2018-11-14T19:31:27.602Z,18.60
2018-11-14T19:41:50.355Z,22.77
2018-11-14T19:52:09.434Z,18.73
2018-11-14T20:02:27.777Z,15.97
2018-11-14T20:12:46.930Z,15.70
2018-11-14T20:23:06.030Z,18.13
2018-11-14T20:33:24.850Z,15.43
2018-11-14T20:43:43.245Z,22.80
2018-11-14T20:54:04.808Z,19.87
2018-11-14T21:04:22.930Z,20.73
2018-11-14T21:14:41.558Z,17.73
2018-11-14T21:25:00.494Z,20.20
2018-11-14T21:35:23.987Z,18.73
2018-11-14T21:45:42.868Z,21.57
2018-11-14T21:56:01.350Z,16.30
2018-11-14T22:06:19.650Z,27.73
2018-11-14T22:16:38.690Z,14.50
2018-11-14T22:26:57.062Z,19.23
2018-11-14T22:37:16.014Z,14.33
2018-11-14T22:47:41.628Z,12.37
2018-11-14T22:58:00.010Z,14.47
2018-11-14T23:08:18.065Z,11.50
2018-11-14T23:18:36.892Z,13.20
2018-11-14T23:28:55.040Z,19.67
2018-11-14T23:39:14.653Z,10.13
2018-11-14T23:49:34.502Z,12.37
2018-11-14T23:59:53.246Z,13.70
